sensor_id;sensor_type;location;lat;lon;timestamp;P1;durP1;ratioP1;P2;durP2;ratioP2
62687;SDS011;48752;51.056;17.056;2023-04-19T00:00:12;21.38;;;13.35;;
62687;SDS011;48752;51.056;17.056;2023-04-19T00:02:38;27.20;;;13.65;;
62687;SDS011;48752;51.056;17.056;2023-04-19T00:05:06;23.23;;;13.05;;
62687;SDS011;48752;51.056;17.056;2023-04-19T00:07:31;19.23;;;12.60;;
62687;SDS011;48752;51.056;17.056;2023-04-19T00:09:57;21.30;;;12.88;;
62687;SDS011;48752;51.056;17.056;2023-04-19T00:12:22;23.77;;;13.23;;
62687;SDS011;48752;51.056;17.056;2023-04-19T00:14:48;21.63;;;13.13;;
62687;SDS011;48752;51.056;17.056;2023-04-19T00:17:13;20.45;;;12.18;;
62687;SDS011;48752;51.056;17.056;2023-04-19T00:19:38;22.95;;;12.85;;
62687;SDS011;48752;51.056;17.056;2023-04-19T00:22:04;21.23;;;12.73;;
62687;SDS011;48752;51.056;17.056;2023-04-19T00:24:29;19.75;;;11.30;;
62687;SDS011;48752;51.056;17.056;2023-04-19T00:26:55;24.00;;;12.20;;
62687;SDS011;48752;51.056;17.056;2023-04-19T00:29:21;19.98;;;12.32;;
62687;SDS011;48752;51.056;17.056;2023-04-19T00:31:47;19.30;;;11.88;;
62687;SDS011;48752;51.056;17.056;2023-04-19T00:34:12;17.80;;;11.45;;
62687;SDS011;48752;51.056;17.056;2023-04-19T00:36:37;21.75;;;12.68;;
62687;SDS011;48752;51.056;17.056;2023-04-19T00:39:03;20.75;;;11.82;;
62687;SDS011;48752;51.056;17.056;2023-04-19T00:41:28;21.52;;;12.55;;
62687;SDS011;48752;51.056;17.056;2023-04-19T00:43:54;19.90;;;11.10;;
62687;SDS011;48752;51.056;17.056;2023-04-19T00:46:19;24.98;;;12.65;;
62687;SDS011;48752;51.056;17.056;2023-04-19T00:48:45;21.05;;;12.48;;
62687;SDS011;48752;51.056;17.056;2023-04-19T00:51:11;25.67;;;13.05;;
62687;SDS011;48752;51.056;17.056;2023-04-19T00:53:36;29.25;;;12.98;;
62687;SDS011;48752;51.056;17.056;2023-04-19T00:56:02;16.95;;;10.18;;
62687;SDS011;48752;51.056;17.056;2023-04-19T00:58:29;22.48;;;11.75;;
62687;SDS011;48752;51.056;17.056;2023-04-19T01:00:56;19.88;;;11.45;;
62687;SDS011;48752;51.056;17.056;2023-04-19T01:03:21;18.65;;;11.40;;
62687;SDS011;48752;51.056;17.056;2023-04-19T01:05:47;19.00;;;11.77;;
62687;SDS011;48752;51.056;17.056;2023-04-19T01:08:13;19.52;;;11.48;;
62687;SDS011;48752;51.056;17.056;2023-04-19T01:10:38;17.35;;;10.20;;
62687;SDS011;48752;51.056;17.056;2023-04-19T01:13:04;19.55;;;11.32;;
62687;SDS011;48752;51.056;17.056;2023-04-19T01:15:29;16.60;;;9.98;;
62687;SDS011;48752;51.056;17.056;2023-04-19T01:17:56;21.33;;;10.00;;
62687;SDS011;48752;51.056;17.056;2023-04-19T01:20:21;16.08;;;9.60;;
62687;SDS011;48752;51.056;17.056;2023-04-19T01:22:48;14.25;;;9.38;;
62687;SDS011;48752;51.056;17.056;2023-04-19T01:25:14;17.27;;;11.05;;
62687;SDS011;48752;51.056;17.056;2023-04-19T01:27:39;20.95;;;10.27;;
62687;SDS011;48752;51.056;17.056;2023-04-19T01:30:05;17.70;;;10.15;;
62687;SDS011;48752;51.056;17.056;2023-04-19T01:32:31;13.65;;;9.27;;
62687;SDS011;48752;51.056;17.056;2023-04-19T01:34:56;14.05;;;9.50;;
62687;SDS011;48752;51.056;17.056;2023-04-19T01:37:22;18.10;;;10.40;;
62687;SDS011;48752;51.056;17.056;2023-04-19T01:39:47;16.33;;;10.50;;
62687;SDS011;48752;51.056;17.056;2023-04-19T01:42:12;15.38;;;10.40;;
62687;SDS011;48752;51.056;17.056;2023-04-19T01:44:38;14.27;;;9.38;;
62687;SDS011;48752;51.056;17.056;2023-04-19T01:47:03;20.13;;;11.15;;
62687;SDS011;48752;51.056;17.056;2023-04-19T01:49:29;18.48;;;10.52;;
62687;SDS011;48752;51.056;17.056;2023-04-19T01:51:54;16.48;;;10.18;;
62687;SDS011;48752;51.056;17.056;2023-04-19T01:54:20;17.13;;;9.57;;
62687;SDS011;48752;51.056;17.056;2023-04-19T01:56:45;17.60;;;10.80;;
62687;SDS011;48752;51.056;17.056;2023-04-19T01:59:11;17.20;;;9.68;;
62687;SDS011;48752;51.056;17.056;2023-04-19T02:01:36;19.00;;;10.13;;
62687;SDS011;48752;51.056;17.056;2023-04-19T02:04:01;15.18;;;9.70;;
62687;SDS011;48752;51.056;17.056;2023-04-19T02:06:27;15.07;;;9.13;;
62687;SDS011;48752;51.056;17.056;2023-04-19T02:08:52;17.70;;;8.93;;
62687;SDS011;48752;51.056;17.056;2023-04-19T02:11:18;15.00;;;8.38;;
62687;SDS011;48752;51.056;17.056;2023-04-19T02:13:43;9.82;;;6.85;;
62687;SDS011;48752;51.056;17.056;2023-04-19T02:16:09;11.23;;;6.80;;
62687;SDS011;48752;51.056;17.056;2023-04-19T02:18:35;12.20;;;6.63;;
62687;SDS011;48752;51.056;17.056;2023-04-19T02:21:03;11.23;;;6.57;;
62687;SDS011;48752;51.056;17.056;2023-04-19T02:23:29;13.73;;;6.97;;
62687;SDS011;48752;51.056;17.056;2023-04-19T02:25:54;11.02;;;7.10;;
62687;SDS011;48752;51.056;17.056;2023-04-19T02:28:20;13.23;;;6.97;;
62687;SDS011;48752;51.056;17.056;2023-04-19T02:30:45;10.95;;;7.60;;
62687;SDS011;48752;51.056;17.056;2023-04-19T02:33:11;10.85;;;7.18;;
62687;SDS011;48752;51.056;17.056;2023-04-19T02:35:36;11.27;;;7.57;;
62687;SDS011;48752;51.056;17.056;2023-04-19T02:38:02;10.27;;;6.90;;
62687;SDS011;48752;51.056;17.056;2023-04-19T02:40:28;11.90;;;6.75;;
62687;SDS011;48752;51.056;17.056;2023-04-19T02:42:53;10.48;;;6.57;;
62687;SDS011;48752;51.056;17.056;2023-04-19T02:45:19;9.02;;;5.78;;
62687;SDS011;48752;51.056;17.056;2023-04-19T02:47:44;10.30;;;6.60;;
62687;SDS011;48752;51.056;17.056;2023-04-19T02:50:11;9.63;;;5.82;;
62687;SDS011;48752;51.056;17.056;2023-04-19T02:52:36;12.25;;;6.15;;
62687;SDS011;48752;51.056;17.056;2023-04-19T02:55:02;9.07;;;5.90;;
62687;SDS011;48752;51.056;17.056;2023-04-19T02:57:28;9.85;;;5.50;;
62687;SDS011;48752;51.056;17.056;2023-04-19T02:59:54;10.35;;;5.30;;
62687;SDS011;48752;51.056;17.056;2023-04-19T03:02:20;7.82;;;5.53;;
62687;SDS011;48752;51.056;17.056;2023-04-19T03:04:45;10.30;;;5.63;;
62687;SDS011;48752;51.056;17.056;2023-04-19T03:07:11;10.63;;;5.78;;
62687;SDS011;48752;51.056;17.056;2023-04-19T03:09:36;11.20;;;5.53;;
62687;SDS011;48752;51.056;17.056;2023-04-19T03:12:02;9.20;;;6.03;;
62687;SDS011;48752;51.056;17.056;2023-04-19T03:14:27;9.23;;;5.90;;
62687;SDS011;48752;51.056;17.056;2023-04-19T03:16:53;8.73;;;5.90;;
62687;SDS011;48752;51.056;17.056;2023-04-19T03:19:18;9.95;;;5.82;;
62687;SDS011;48752;51.056;17.056;2023-04-19T03:21:44;11.25;;;6.35;;
62687;SDS011;48752;51.056;17.056;2023-04-19T03:24:09;9.50;;;6.00;;
62687;SDS011;48752;51.056;17.056;2023-04-19T03:26:35;9.63;;;4.95;;
62687;SDS011;48752;51.056;17.056;2023-04-19T03:29:00;10.15;;;5.25;;
62687;SDS011;48752;51.056;17.056;2023-04-19T03:31:27;7.75;;;4.28;;
62687;SDS011;48752;51.056;17.056;2023-04-19T03:33:53;9.57;;;5.22;;
62687;SDS011;48752;51.056;17.056;2023-04-19T03:36:19;9.63;;;4.88;;
62687;SDS011;48752;51.056;17.056;2023-04-19T03:38:44;10.45;;;5.05;;
62687;SDS011;48752;51.056;17.056;2023-04-19T03:41:19;7.15;;;4.35;;
62687;SDS011;48752;51.056;17.056;2023-04-19T03:43:45;11.52;;;5.38;;
62687;SDS011;48752;51.056;17.056;2023-04-19T03:46:10;9.25;;;4.50;;
62687;SDS011;48752;51.056;17.056;2023-04-19T03:48:36;9.00;;;4.18;;
62687;SDS011;48752;51.056;17.056;2023-04-19T03:51:01;7.05;;;4.28;;
62687;SDS011;48752;51.056;17.056;2023-04-19T03:53:27;7.72;;;4.65;;
62687;SDS011;48752;51.056;17.056;2023-04-19T03:55:52;11.43;;;5.18;;
62687;SDS011;48752;51.056;17.056;2023-04-19T03:58:18;9.30;;;4.97;;
62687;SDS011;48752;51.056;17.056;2023-04-19T04:00:43;7.85;;;4.95;;
62687;SDS011;48752;51.056;17.056;2023-04-19T04:03:09;10.88;;;6.68;;
62687;SDS011;48752;51.056;17.056;2023-04-19T04:05:34;8.95;;;5.75;;
62687;SDS011;48752;51.056;17.056;2023-04-19T04:07:59;7.70;;;5.22;;
62687;SDS011;48752;51.056;17.056;2023-04-19T04:10:27;9.07;;;5.50;;
62687;SDS011;48752;51.056;17.056;2023-04-19T04:12:53;8.55;;;5.03;;
62687;SDS011;48752;51.056;17.056;2023-04-19T04:15:20;8.15;;;5.45;;
62687;SDS011;48752;51.056;17.056;2023-04-19T04:17:54;8.10;;;5.10;;
62687;SDS011;48752;51.056;17.056;2023-04-19T04:20:23;5.72;;;4.38;;
62687;SDS011;48752;51.056;17.056;2023-04-19T04:25:55;12.77;;;4.43;;
62687;SDS011;48752;51.056;17.056;2023-04-19T04:28:25;7.82;;;3.90;;
62687;SDS011;48752;51.056;17.056;2023-04-19T04:30:52;7.55;;;4.20;;
62687;SDS011;48752;51.056;17.056;2023-04-19T04:36:06;7.55;;;4.63;;
62687;SDS011;48752;51.056;17.056;2023-04-19T04:38:32;10.43;;;4.57;;
62687;SDS011;48752;51.056;17.056;2023-04-19T04:40:59;7.95;;;5.15;;
62687;SDS011;48752;51.056;17.056;2023-04-19T04:43:25;10.68;;;5.25;;
62687;SDS011;48752;51.056;17.056;2023-04-19T04:45:53;11.20;;;4.97;;
62687;SDS011;48752;51.056;17.056;2023-04-19T04:48:21;21.42;;;7.68;;
62687;SDS011;48752;51.056;17.056;2023-04-19T04:50:47;15.88;;;7.43;;
62687;SDS011;48752;51.056;17.056;2023-04-19T04:53:13;10.77;;;5.50;;
62687;SDS011;48752;51.056;17.056;2023-04-19T04:55:39;10.65;;;5.95;;
62687;SDS011;48752;51.056;17.056;2023-04-19T04:58:06;10.23;;;5.40;;
62687;SDS011;48752;51.056;17.056;2023-04-19T05:00:31;12.70;;;5.32;;
62687;SDS011;48752;51.056;17.056;2023-04-19T05:02:57;10.70;;;5.05;;
62687;SDS011;48752;51.056;17.056;2023-04-19T05:05:23;14.45;;;6.25;;
62687;SDS011;48752;51.056;17.056;2023-04-19T05:07:51;27.30;;;7.57;;
62687;SDS011;48752;51.056;17.056;2023-04-19T05:10:18;14.38;;;6.45;;
62687;SDS011;48752;51.056;17.056;2023-04-19T05:12:45;24.60;;;6.70;;
62687;SDS011;48752;51.056;17.056;2023-04-19T05:15:12;12.77;;;6.35;;
62687;SDS011;48752;51.056;17.056;2023-04-19T05:17:37;14.80;;;8.05;;
62687;SDS011;48752;51.056;17.056;2023-04-19T05:20:04;13.93;;;6.70;;
62687;SDS011;48752;51.056;17.056;2023-04-19T05:22:33;10.90;;;5.95;;
62687;SDS011;48752;51.056;17.056;2023-04-19T05:24:59;12.55;;;7.45;;
62687;SDS011;48752;51.056;17.056;2023-04-19T05:27:26;15.07;;;6.43;;
62687;SDS011;48752;51.056;17.056;2023-04-19T05:29:51;12.15;;;6.22;;
62687;SDS011;48752;51.056;17.056;2023-04-19T05:32:17;10.60;;;5.97;;
62687;SDS011;48752;51.056;17.056;2023-04-19T05:34:43;12.27;;;5.65;;
62687;SDS011;48752;51.056;17.056;2023-04-19T05:37:08;17.00;;;5.72;;
62687;SDS011;48752;51.056;17.056;2023-04-19T05:39:34;13.40;;;5.97;;
62687;SDS011;48752;51.056;17.056;2023-04-19T05:41:59;9.20;;;5.57;;
62687;SDS011;48752;51.056;17.056;2023-04-19T05:44:25;8.48;;;5.22;;
62687;SDS011;48752;51.056;17.056;2023-04-19T05:46:51;16.10;;;6.10;;
62687;SDS011;48752;51.056;17.056;2023-04-19T05:49:16;12.43;;;5.25;;
62687;SDS011;48752;51.056;17.056;2023-04-19T05:51:41;13.10;;;5.15;;
62687;SDS011;48752;51.056;17.056;2023-04-19T05:54:07;9.98;;;5.05;;
62687;SDS011;48752;51.056;17.056;2023-04-19T05:56:36;10.73;;;5.75;;
62687;SDS011;48752;51.056;17.056;2023-04-19T05:59:02;7.93;;;4.70;;
62687;SDS011;48752;51.056;17.056;2023-04-19T06:01:27;9.82;;;5.10;;
62687;SDS011;48752;51.056;17.056;2023-04-19T06:03:53;12.90;;;6.68;;
62687;SDS011;48752;51.056;17.056;2023-04-19T06:06:20;6.05;;;3.92;;
62687;SDS011;48752;51.056;17.056;2023-04-19T06:08:45;9.07;;;5.80;;
62687;SDS011;48752;51.056;17.056;2023-04-19T06:11:11;18.17;;;6.97;;
62687;SDS011;48752;51.056;17.056;2023-04-19T06:13:36;21.13;;;11.73;;
62687;SDS011;48752;51.056;17.056;2023-04-19T06:16:02;13.82;;;7.75;;
62687;SDS011;48752;51.056;17.056;2023-04-19T06:18:28;11.85;;;6.18;;
62687;SDS011;48752;51.056;17.056;2023-04-19T06:20:53;17.52;;;6.45;;
62687;SDS011;48752;51.056;17.056;2023-04-19T06:23:19;13.65;;;5.68;;
62687;SDS011;48752;51.056;17.056;2023-04-19T06:25:44;9.35;;;4.68;;
62687;SDS011;48752;51.056;17.056;2023-04-19T06:28:12;12.30;;;5.38;;
62687;SDS011;48752;51.056;17.056;2023-04-19T06:30:38;13.43;;;4.55;;
62687;SDS011;48752;51.056;17.056;2023-04-19T06:33:03;12.75;;;4.80;;
62687;SDS011;48752;51.056;17.056;2023-04-19T06:35:28;7.93;;;3.92;;
62687;SDS011;48752;51.056;17.056;2023-04-19T06:37:55;11.05;;;4.60;;
62687;SDS011;48752;51.056;17.056;2023-04-19T06:40:20;9.30;;;4.93;;
62687;SDS011;48752;51.056;17.056;2023-04-19T06:42:45;10.02;;;5.35;;
62687;SDS011;48752;51.056;17.056;2023-04-19T06:45:11;15.90;;;4.47;;
62687;SDS011;48752;51.056;17.056;2023-04-19T06:47:36;8.65;;;4.05;;
62687;SDS011;48752;51.056;17.056;2023-04-19T06:50:02;11.77;;;4.63;;
62687;SDS011;48752;51.056;17.056;2023-04-19T06:52:27;18.63;;;5.80;;
62687;SDS011;48752;51.056;17.056;2023-04-19T06:54:53;10.95;;;4.65;;
62687;SDS011;48752;51.056;17.056;2023-04-19T06:57:18;7.18;;;3.75;;
62687;SDS011;48752;51.056;17.056;2023-04-19T06:59:44;8.05;;;4.57;;
62687;SDS011;48752;51.056;17.056;2023-04-19T07:02:09;12.43;;;4.72;;
62687;SDS011;48752;51.056;17.056;2023-04-19T07:04:35;10.45;;;4.70;;
62687;SDS011;48752;51.056;17.056;2023-04-19T07:07:01;9.88;;;4.05;;
62687;SDS011;48752;51.056;17.056;2023-04-19T07:09:27;10.75;;;4.47;;
62687;SDS011;48752;51.056;17.056;2023-04-19T07:11:52;13.52;;;4.28;;
62687;SDS011;48752;51.056;17.056;2023-04-19T07:14:18;7.32;;;4.88;;
62687;SDS011;48752;51.056;17.056;2023-04-19T07:16:44;7.78;;;3.95;;
62687;SDS011;48752;51.056;17.056;2023-04-19T07:19:10;8.73;;;4.32;;
62687;SDS011;48752;51.056;17.056;2023-04-19T07:21:36;14.18;;;5.05;;
62687;SDS011;48752;51.056;17.056;2023-04-19T07:24:03;6.63;;;4.03;;
62687;SDS011;48752;51.056;17.056;2023-04-19T07:26:30;15.30;;;4.35;;
62687;SDS011;48752;51.056;17.056;2023-04-19T07:28:55;16.10;;;4.47;;
62687;SDS011;48752;51.056;17.056;2023-04-19T07:31:21;13.13;;;4.30;;
62687;SDS011;48752;51.056;17.056;2023-04-19T07:33:46;13.88;;;4.65;;
62687;SDS011;48752;51.056;17.056;2023-04-19T07:36:12;8.73;;;4.55;;
62687;SDS011;48752;51.056;17.056;2023-04-19T07:38:37;5.95;;;3.75;;
62687;SDS011;48752;51.056;17.056;2023-04-19T07:41:02;7.78;;;4.70;;
62687;SDS011;48752;51.056;17.056;2023-04-19T07:43:29;9.27;;;4.80;;
62687;SDS011;48752;51.056;17.056;2023-04-19T07:45:54;15.57;;;5.53;;
62687;SDS011;48752;51.056;17.056;2023-04-19T07:48:20;17.58;;;5.53;;
62687;SDS011;48752;51.056;17.056;2023-04-19T07:50:46;10.20;;;6.03;;
62687;SDS011;48752;51.056;17.056;2023-04-19T07:53:11;10.88;;;4.75;;
62687;SDS011;48752;51.056;17.056;2023-04-19T07:55:36;9.63;;;5.03;;
62687;SDS011;48752;51.056;17.056;2023-04-19T07:58:02;7.80;;;4.68;;
62687;SDS011;48752;51.056;17.056;2023-04-19T08:00:27;8.15;;;4.10;;
62687;SDS011;48752;51.056;17.056;2023-04-19T08:02:55;9.15;;;4.43;;
62687;SDS011;48752;51.056;17.056;2023-04-19T08:05:21;10.65;;;5.07;;
62687;SDS011;48752;51.056;17.056;2023-04-19T08:07:47;10.13;;;4.47;;
62687;SDS011;48752;51.056;17.056;2023-04-19T08:10:13;5.47;;;4.00;;
62687;SDS011;48752;51.056;17.056;2023-04-19T08:12:39;6.00;;;4.43;;
62687;SDS011;48752;51.056;17.056;2023-04-19T08:15:06;10.80;;;5.32;;
62687;SDS011;48752;51.056;17.056;2023-04-19T08:17:32;7.53;;;4.80;;
62687;SDS011;48752;51.056;17.056;2023-04-19T08:19:58;7.07;;;4.72;;
62687;SDS011;48752;51.056;17.056;2023-04-19T08:22:24;8.40;;;5.00;;
62687;SDS011;48752;51.056;17.056;2023-04-19T08:24:49;7.55;;;4.97;;
62687;SDS011;48752;51.056;17.056;2023-04-19T08:27:16;9.18;;;4.82;;
62687;SDS011;48752;51.056;17.056;2023-04-19T08:29:41;12.60;;;5.55;;
62687;SDS011;48752;51.056;17.056;2023-04-19T08:32:07;7.10;;;5.18;;
62687;SDS011;48752;51.056;17.056;2023-04-19T08:34:35;8.05;;;5.68;;
62687;SDS011;48752;51.056;17.056;2023-04-19T08:37:02;7.45;;;5.63;;
62687;SDS011;48752;51.056;17.056;2023-04-19T08:39:28;9.23;;;5.00;;
62687;SDS011;48752;51.056;17.056;2023-04-19T08:41:56;9.48;;;5.20;;
62687;SDS011;48752;51.056;17.056;2023-04-19T08:44:30;8.98;;;5.80;;
62687;SDS011;48752;51.056;17.056;2023-04-19T08:46:56;19.63;;;7.10;;
62687;SDS011;48752;51.056;17.056;2023-04-19T08:49:22;19.88;;;7.18;;
62687;SDS011;48752;51.056;17.056;2023-04-19T08:51:48;19.83;;;6.07;;
62687;SDS011;48752;51.056;17.056;2023-04-19T08:54:14;10.43;;;6.10;;
62687;SDS011;48752;51.056;17.056;2023-04-19T08:56:40;14.32;;;5.90;;
62687;SDS011;48752;51.056;17.056;2023-04-19T08:59:05;11.60;;;6.20;;
62687;SDS011;48752;51.056;17.056;2023-04-19T09:01:31;8.88;;;5.93;;
62687;SDS011;48752;51.056;17.056;2023-04-19T09:03:57;10.25;;;6.30;;
62687;SDS011;48752;51.056;17.056;2023-04-19T09:06:22;12.23;;;6.30;;
62687;SDS011;48752;51.056;17.056;2023-04-19T09:08:48;10.55;;;6.15;;
62687;SDS011;48752;51.056;17.056;2023-04-19T09:11:15;10.93;;;5.90;;
62687;SDS011;48752;51.056;17.056;2023-04-19T09:13:40;9.77;;;6.25;;
62687;SDS011;48752;51.056;17.056;2023-04-19T09:16:21;14.93;;;7.00;;
62687;SDS011;48752;51.056;17.056;2023-04-19T09:18:55;10.02;;;6.13;;
62687;SDS011;48752;51.056;17.056;2023-04-19T09:21:28;10.98;;;6.70;;
62687;SDS011;48752;51.056;17.056;2023-04-19T09:23:55;8.27;;;6.18;;
62687;SDS011;48752;51.056;17.056;2023-04-19T09:26:21;13.73;;;6.43;;
62687;SDS011;48752;51.056;17.056;2023-04-19T09:28:56;11.95;;;5.95;;
62687;SDS011;48752;51.056;17.056;2023-04-19T09:31:22;13.43;;;7.22;;
62687;SDS011;48752;51.056;17.056;2023-04-19T09:33:48;11.70;;;6.72;;
62687;SDS011;48752;51.056;17.056;2023-04-19T09:36:27;12.13;;;6.35;;
62687;SDS011;48752;51.056;17.056;2023-04-19T09:38:54;13.95;;;6.68;;
62687;SDS011;48752;51.056;17.056;2023-04-19T09:41:20;8.23;;;6.07;;
62687;SDS011;48752;51.056;17.056;2023-04-19T09:43:45;13.80;;;5.93;;
62687;SDS011;48752;51.056;17.056;2023-04-19T09:46:30;10.73;;;6.40;;
62687;SDS011;48752;51.056;17.056;2023-04-19T09:49:20;9.40;;;6.13;;
62687;SDS011;48752;51.056;17.056;2023-04-19T09:51:48;15.00;;;6.00;;
62687;SDS011;48752;51.056;17.056;2023-04-19T09:54:15;11.07;;;7.13;;
62687;SDS011;48752;51.056;17.056;2023-04-19T09:56:42;18.25;;;7.47;;
62687;SDS011;48752;51.056;17.056;2023-04-19T09:59:08;13.40;;;7.00;;
62687;SDS011;48752;51.056;17.056;2023-04-19T10:01:37;10.25;;;5.78;;
62687;SDS011;48752;51.056;17.056;2023-04-19T10:04:05;15.07;;;7.05;;
62687;SDS011;48752;51.056;17.056;2023-04-19T10:06:31;10.70;;;6.72;;
62687;SDS011;48752;51.056;17.056;2023-04-19T10:09:00;15.70;;;6.18;;
62687;SDS011;48752;51.056;17.056;2023-04-19T10:11:36;12.80;;;7.55;;
62687;SDS011;48752;51.056;17.056;2023-04-19T10:16:31;26.15;;;9.00;;
62687;SDS011;48752;51.056;17.056;2023-04-19T10:18:56;27.38;;;8.98;;
62687;SDS011;48752;51.056;17.056;2023-04-19T10:21:22;18.63;;;8.52;;
62687;SDS011;48752;51.056;17.056;2023-04-19T10:23:48;23.33;;;7.95;;
62687;SDS011;48752;51.056;17.056;2023-04-19T10:26:14;17.92;;;7.63;;
62687;SDS011;48752;51.056;17.056;2023-04-19T10:28:40;13.00;;;6.85;;
62687;SDS011;48752;51.056;17.056;2023-04-19T10:31:09;10.13;;;6.65;;
62687;SDS011;48752;51.056;17.056;2023-04-19T10:33:36;10.50;;;6.65;;
62687;SDS011;48752;51.056;17.056;2023-04-19T10:36:02;12.02;;;7.05;;
62687;SDS011;48752;51.056;17.056;2023-04-19T10:38:38;16.33;;;6.85;;
62687;SDS011;48752;51.056;17.056;2023-04-19T10:41:05;12.13;;;6.18;;
62687;SDS011;48752;51.056;17.056;2023-04-19T10:43:36;17.17;;;6.38;;
62687;SDS011;48752;51.056;17.056;2023-04-19T10:46:13;19.30;;;12.93;;
62687;SDS011;48752;51.056;17.056;2023-04-19T10:48:42;15.05;;;8.02;;
62687;SDS011;48752;51.056;17.056;2023-04-19T10:51:18;15.95;;;7.28;;
62687;SDS011;48752;51.056;17.056;2023-04-19T10:56:19;13.05;;;7.95;;
62687;SDS011;48752;51.056;17.056;2023-04-19T11:01:45;34.10;;;9.35;;
62687;SDS011;48752;51.056;17.056;2023-04-19T11:09:25;21.45;;;7.63;;
62687;SDS011;48752;51.056;17.056;2023-04-19T11:12:03;16.80;;;7.93;;
62687;SDS011;48752;51.056;17.056;2023-04-19T11:14:42;20.77;;;8.60;;
62687;SDS011;48752;51.056;17.056;2023-04-19T11:22:38;14.75;;;7.43;;
62687;SDS011;48752;51.056;17.056;2023-04-19T11:25:13;11.25;;;6.75;;
62687;SDS011;48752;51.056;17.056;2023-04-19T11:27:46;15.30;;;8.38;;
62687;SDS011;48752;51.056;17.056;2023-04-19T11:30:14;14.93;;;8.15;;
62687;SDS011;48752;51.056;17.056;2023-04-19T11:32:47;22.65;;;8.98;;
62687;SDS011;48752;51.056;17.056;2023-04-19T11:35:17;23.00;;;8.75;;
62687;SDS011;48752;51.056;17.056;2023-04-19T11:37:44;23.10;;;9.00;;
62687;SDS011;48752;51.056;17.056;2023-04-19T11:40:13;22.75;;;8.85;;
62687;SDS011;48752;51.056;17.056;2023-04-19T11:42:40;18.00;;;8.52;;
62687;SDS011;48752;51.056;17.056;2023-04-19T11:45:05;19.05;;;9.25;;
62687;SDS011;48752;51.056;17.056;2023-04-19T11:47:31;18.33;;;8.95;;
62687;SDS011;48752;51.056;17.056;2023-04-19T11:50:09;16.05;;;8.70;;
62687;SDS011;48752;51.056;17.056;2023-04-19T11:52:57;18.83;;;8.48;;
62687;SDS011;48752;51.056;17.056;2023-04-19T11:55:23;13.68;;;7.53;;
62687;SDS011;48752;51.056;17.056;2023-04-19T11:57:49;18.50;;;8.20;;
62687;SDS011;48752;51.056;17.056;2023-04-19T12:00:15;14.60;;;8.57;;
62687;SDS011;48752;51.056;17.056;2023-04-19T12:02:41;21.23;;;9.15;;
62687;SDS011;48752;51.056;17.056;2023-04-19T12:05:12;17.52;;;9.82;;
62687;SDS011;48752;51.056;17.056;2023-04-19T12:08:00;20.13;;;10.27;;
62687;SDS011;48752;51.056;17.056;2023-04-19T12:10:35;16.27;;;9.60;;
62687;SDS011;48752;51.056;17.056;2023-04-19T12:13:14;17.42;;;9.18;;
62687;SDS011;48752;51.056;17.056;2023-04-19T12:15:44;16.23;;;8.73;;
62687;SDS011;48752;51.056;17.056;2023-04-19T12:18:10;12.93;;;7.65;;
62687;SDS011;48752;51.056;17.056;2023-04-19T12:20:37;16.30;;;8.80;;
62687;SDS011;48752;51.056;17.056;2023-04-19T12:23:08;22.08;;;8.63;;
62687;SDS011;48752;51.056;17.056;2023-04-19T12:25:35;13.18;;;8.63;;
62687;SDS011;48752;51.056;17.056;2023-04-19T12:28:01;13.85;;;8.07;;
62687;SDS011;48752;51.056;17.056;2023-04-19T12:30:27;16.95;;;8.13;;
62687;SDS011;48752;51.056;17.056;2023-04-19T12:32:53;14.27;;;9.05;;
62687;SDS011;48752;51.056;17.056;2023-04-19T12:35:25;15.65;;;9.55;;
62687;SDS011;48752;51.056;17.056;2023-04-19T12:37:55;15.48;;;9.25;;
62687;SDS011;48752;51.056;17.056;2023-04-19T12:40:22;16.45;;;9.75;;
62687;SDS011;48752;51.056;17.056;2023-04-19T12:42:48;21.52;;;10.43;;
62687;SDS011;48752;51.056;17.056;2023-04-19T12:45:13;15.63;;;9.65;;
62687;SDS011;48752;51.056;17.056;2023-04-19T12:47:39;16.65;;;10.95;;
62687;SDS011;48752;51.056;17.056;2023-04-19T12:50:06;13.43;;;9.93;;
62687;SDS011;48752;51.056;17.056;2023-04-19T12:52:31;18.15;;;10.30;;
62687;SDS011;48752;51.056;17.056;2023-04-19T12:57:29;17.45;;;10.70;;
62687;SDS011;48752;51.056;17.056;2023-04-19T12:59:54;21.20;;;10.20;;
62687;SDS011;48752;51.056;17.056;2023-04-19T13:02:20;25.27;;;10.98;;
62687;SDS011;48752;51.056;17.056;2023-04-19T13:04:45;22.70;;;10.98;;
62687;SDS011;48752;51.056;17.056;2023-04-19T13:07:11;22.27;;;9.95;;
62687;SDS011;48752;51.056;17.056;2023-04-19T13:09:37;21.13;;;10.55;;
62687;SDS011;48752;51.056;17.056;2023-04-19T13:12:03;14.68;;;9.48;;
62687;SDS011;48752;51.056;17.056;2023-04-19T13:14:29;17.17;;;8.80;;
62687;SDS011;48752;51.056;17.056;2023-04-19T13:16:54;14.05;;;8.63;;
62687;SDS011;48752;51.056;17.056;2023-04-19T13:19:20;12.93;;;8.80;;
62687;SDS011;48752;51.056;17.056;2023-04-19T13:21:45;15.52;;;8.75;;
62687;SDS011;48752;51.056;17.056;2023-04-19T13:24:11;15.10;;;7.60;;
62687;SDS011;48752;51.056;17.056;2023-04-19T13:26:37;13.70;;;8.55;;
62687;SDS011;48752;51.056;17.056;2023-04-19T13:29:02;12.40;;;8.10;;
62687;SDS011;48752;51.056;17.056;2023-04-19T13:31:28;13.48;;;8.20;;
62687;SDS011;48752;51.056;17.056;2023-04-19T13:33:53;14.20;;;8.32;;
62687;SDS011;48752;51.056;17.056;2023-04-19T13:36:19;15.88;;;7.63;;
62687;SDS011;48752;51.056;17.056;2023-04-19T13:38:45;14.55;;;8.00;;
62687;SDS011;48752;51.056;17.056;2023-04-19T13:41:10;14.52;;;8.15;;
62687;SDS011;48752;51.056;17.056;2023-04-19T13:43:36;18.10;;;8.57;;
62687;SDS011;48752;51.056;17.056;2023-04-19T13:46:01;15.88;;;8.27;;
62687;SDS011;48752;51.056;17.056;2023-04-19T13:48:26;13.32;;;8.43;;
62687;SDS011;48752;51.056;17.056;2023-04-19T13:50:56;17.20;;;8.48;;
62687;SDS011;48752;51.056;17.056;2023-04-19T13:53:22;17.35;;;8.32;;
62687;SDS011;48752;51.056;17.056;2023-04-19T13:55:49;15.27;;;8.48;;
62687;SDS011;48752;51.056;17.056;2023-04-19T13:58:14;16.50;;;8.90;;
62687;SDS011;48752;51.056;17.056;2023-04-19T14:00:40;21.60;;;9.98;;
62687;SDS011;48752;51.056;17.056;2023-04-19T14:03:05;31.23;;;9.88;;
62687;SDS011;48752;51.056;17.056;2023-04-19T14:05:31;18.52;;;9.18;;
62687;SDS011;48752;51.056;17.056;2023-04-19T14:07:56;22.27;;;11.25;;
62687;SDS011;48752;51.056;17.056;2023-04-19T14:10:21;21.92;;;10.30;;
62687;SDS011;48752;51.056;17.056;2023-04-19T14:12:47;14.57;;;8.70;;
62687;SDS011;48752;51.056;17.056;2023-04-19T14:15:13;19.42;;;9.30;;
62687;SDS011;48752;51.056;17.056;2023-04-19T14:17:39;14.00;;;8.93;;
62687;SDS011;48752;51.056;17.056;2023-04-19T14:20:05;11.23;;;7.55;;
62687;SDS011;48752;51.056;17.056;2023-04-19T14:22:30;13.75;;;8.70;;
62687;SDS011;48752;51.056;17.056;2023-04-19T14:24:56;13.57;;;8.68;;
62687;SDS011;48752;51.056;17.056;2023-04-19T14:27:21;16.75;;;9.48;;
62687;SDS011;48752;51.056;17.056;2023-04-19T14:29:47;18.77;;;9.65;;
62687;SDS011;48752;51.056;17.056;2023-04-19T14:32:13;15.80;;;9.70;;
62687;SDS011;48752;51.056;17.056;2023-04-19T14:34:39;13.95;;;8.05;;
62687;SDS011;48752;51.056;17.056;2023-04-19T14:37:04;16.75;;;7.43;;
62687;SDS011;48752;51.056;17.056;2023-04-19T14:39:30;13.80;;;8.00;;
62687;SDS011;48752;51.056;17.056;2023-04-19T14:41:55;14.55;;;8.88;;
62687;SDS011;48752;51.056;17.056;2023-04-19T14:44:21;12.73;;;7.93;;
62687;SDS011;48752;51.056;17.056;2023-04-19T14:46:47;15.27;;;7.90;;